Date,TemperatureHighF,TemperatureAvgF,TemperatureLowF,DewpointHighF,DewpointAvgF,DewpointLowF,HumidityHigh,HumidityAvg,HumidityLow,PressureMaxIn,PressureMinIn,WindSpeedMaxMPH,WindSpeedAvgMPH,GustSpeedMaxMPH,PrecipitationSumIn
2013-4-1,59,45,31,46,33,9,97,66,35,29.87,29.60,23,4,23,0.04
2013-4-2,36,30,25,12,8,6,51,40,31,30.02,29.87,10,2,11,0.00
2013-4-3,49,35,26,17,10,4,44,35,27,30.25,29.06,22,3,22,0.00
2013-4-4,57,40,25,24,16,8,50,37,26,30.31,30.01,13,4,13,0.00
2013-4-5,65,47,33,26,20,14,57,36,21,30.01,29.72,14,3,14,0.00
2013-4-6,57,41,29,19,13,6,50,34,16,30.22,29.95,15,3,15,0.00
2013-4-7,65,48,34,37,28,16,62,46,30,30.22,29.95,17,6,21,0.00
2013-4-8,79,61,43,42,38,35,79,46,22,30.04,29.92,14,4,14,0.00
2013-4-9,86,68,54,49,41,30,73,41,20,29.95,29.86,24,3,24,0.04
2013-4-10,88,67,53,58,48,40,98,56,29,29.92,29.78,13,3,13,0.71
2013-4-11,59,54,45,58,51,42,98,90,59,29.95,29.75,13,3,13,0.00
2013-4-12,45,41,38,43,39,36,98,93,73,29.95,29.66,13,6,13,0.00
2013-4-13,60,47,37,46,35,28,98,68,37,29.92,29.72,15,2,15,0.00
2013-4-14,60,50,39,34,29,24,72,46,30,30.13,29.92,15,2,17,0.00
2013-4-15,66,50,40,36,28,21,58,42,33,30.31,30.13,13,4,13,0.00
2013-4-16,70,58,45,52,44,33,82,62,44,30.28,30.07,16,6,16,0.00
2013-4-17,72,60,50,54,38,29,86,49,24,30.25,30.07,11,2,11,0.00
2013-4-18,58,51,42,52,40,33,97,68,42,30.28,30.01,15,5,15,0.00
2013-4-19,76,63,53,64,58,50,98,85,55,30.04,29.60,22,7,22,1.26
2013-4-20,60,49,39,50,32,17,93,54,30,30.25,29.66,19,3,19,0.16
2013-4-21,56,43,30,25,19,15,54,39,29,30.54,30.25,9,2,9,0.00
2013-4-22,58,44,32,33,26,21,75,50,36,30.57,30.40,13,4,13,0.00
2013-4-23,48,43,37,38,33,30,83,70,61,30.40,30.07,10,4,10,0.00
2013-4-24,75,55,32,50,41,30,92,62,36,30.07,29.78,15,4,15,0.00
2013-4-25,67,54,40,51,29,21,74,40,23,30.22,29.83,26,3,26,0.00
2013-4-26,68,53,38,34,27,21,62,39,23,30.37,30.22,10,2,10,0.00
2013-4-27,73,56,34,34,28,24,69,38,23,30.37,30.22,10,2,10,0.00
2013-4-28,76,58,38,41,34,27,72,42,25,30.25,30.13,13,4,13,0.00
2013-4-29,54,51,50,49,45,36,95,79,56,30.19,30.13,13,4,13,0.08
2013-4-30,70,56,44,51,39,20,95,60,27,30.28,30.13,13,3,13,0.00